YPPF weather

Adelaide Parafield Airport
Adelaide, South Australia, Australia

Public forecast

Using degrees Celsius for public forecast. Weather courtesy of forecast.io.

METAR (pilot weather report)

Closest report is Adelaide International Airport, 10.4 nm (19.3 km) SSW. Retrieved 2017/10/19 11:30 UTC (0 seconds ago):

YPAD 191130Z 17009KT 9999 BKN044 15/07 Q1027 NOSIG

TAF (pilot weather forecast)

Closest forecast is Adelaide International Airport, 10.4 nm (19.3 km) SSW. Retrieved 2017/10/19 06:00 UTC (5 hours ago):

TAF YPAD 190529Z 1906/2012 22014KT 9999 FEW030 FM191800 17008KT 9999 FEW030 FM200000 18014KT 9999 SCT030